Terminal Aerodrome Forecast
Issued by NWS

Home | Current Version | Previous Version | Text Only | Print | Product List | Glossary On
Versions: 1 2 3 4 5 6 7 8 9 10 11 12 13 14 15 16 17 18 19 20
000
FTUS43 KPAH 240529
TAFCGI
TAF
KCGI 240529Z 2406/2506 06006KT P6SM SCT009 OVC060
      TEMPO 2406/2409 BKN009
     FM240900 07008KT 4SM -SHRA BR OVC008
     FM241200 09007KT 2SM SHRA VCTS OVC003CB
     FM241600 14005KT P6SM OVC008
     FM242000 18010G20KT 2SM +TSRA BR OVC008CB
     FM250400 23016G24KT P6SM OVC070=

USA.gov is the U.S. government's official web portal to all federal, state and local government web resources and services.